Time;durP1;ratioP1;P1;durP2;ratioP2;P2;SDS_P1;SDS_P2;PMS_P1;PMS_P2;Temp;Humidity;BMP_temperature;BMP_pressure;BME280_temperature;BME280_humidity;BME280_pressure;Samples;Min_cycle;Max_cycle;Signal;HPM_P1;HPM_P2
2022/05/04 00:00:27;;;;;;;1.90;1.27;;;15.40;60.00;;;;;;10498359;28;20032;-52
2022/05/04 00:05:28;;;;;;;1.70;1.23;;;15.40;60.10;;;;;;10498227;28;20063;-52
2022/05/04 00:10:30;;;;;;;1.48;1.23;;;15.40;60.00;;;;;;10497919;28;20032;-51
2022/05/04 00:15:31;;;;;;;3.30;2.10;;;15.40;60.10;;;;;;10497677;28;20024;-53
2022/05/04 00:20:31;;;;;;;2.63;1.75;;;15.40;60.00;;;;;;10497603;28;20096;-51
2022/05/04 00:25:32;;;;;;;1.98;1.55;;;15.40;60.10;;;;;;10497245;28;20036;-51
2022/05/04 00:30:33;;;;;;;1.90;1.30;;;15.40;60.00;;;;;;10513190;28;20139;-50
2022/05/04 00:35:34;;;;;;;1.85;1.50;;;15.40;60.00;;;;;;10497154;28;20087;-48
2022/05/04 00:40:35;;;;;;;2.42;2.00;;;15.40;60.00;;;;;;10512698;28;20210;-53
2022/05/04 00:45:36;;;;;;;2.88;1.77;;;15.40;60.00;;;;;;10511703;28;20111;-52
2022/05/04 00:50:36;;;;;;;4.13;1.85;;;15.40;60.00;;;;;;10496300;28;20107;-49
2022/05/04 00:55:38;;;;;;;2.83;1.95;;;15.40;60.00;;;;;;10494823;28;20036;-50
2022/05/04 01:00:39;;;;;;;3.53;1.58;;;15.40;60.10;;;;;;10511700;28;20024;-51
2022/05/04 01:05:39;;;;;;;2.47;2.13;;;15.40;60.00;;;;;;10495725;28;20028;-52
2022/05/04 01:10:40;;;;;;;2.42;1.80;;;15.40;60.10;;;;;;10495384;28;20499;-54
2022/05/04 01:15:41;;;;;;;1.92;1.73;;;15.30;59.90;;;;;;10495392;28;20024;-50
2022/05/04 01:20:42;;;;;;;2.25;1.77;;;15.30;60.00;;;;;;10494693;28;20047;-52
2022/05/04 01:25:44;;;;;;;2.85;1.70;;;15.30;60.00;;;;;;10453591;28;20035;-53
2022/05/04 01:30:45;;;;;;;1.95;1.58;;;15.30;60.00;;;;;;10453508;28;20283;-52
2022/05/04 01:35:46;;;;;;;2.25;1.75;;;15.30;60.00;;;;;;10468594;28;20386;-51
2022/05/04 01:40:47;;;;;;;2.92;1.73;;;15.30;60.00;;;;;;10452263;28;20029;-52
2022/05/04 01:45:48;;;;;;;2.75;1.60;;;15.30;60.00;;;;;;10453102;28;20049;-52
2022/05/04 01:50:49;;;;;;;1.23;1.13;;;15.30;60.00;;;;;;10453432;28;20033;-51
2022/05/04 01:55:50;;;;;;;1.45;0.70;;;15.30;60.00;;;;;;10452084;28;20087;-49
2022/05/04 02:00:50;;;;;;;2.17;1.48;;;15.30;59.90;;;;;;10453226;28;20040;-52
2022/05/04 02:05:51;;;;;;;2.45;1.20;;;15.30;59.90;;;;;;10452637;28;20100;-51
2022/05/04 02:10:52;;;;;;;3.60;1.90;;;15.30;59.90;;;;;;10451201;28;20037;-50
2022/05/04 02:15:53;;;;;;;2.10;1.60;;;15.30;59.90;;;;;;10452323;28;20025;-52
2022/05/04 02:20:53;;;;;;;2.42;1.77;;;15.30;59.90;;;;;;10468091;28;20067;-50
2022/05/04 02:25:54;;;;;;;3.03;1.65;;;15.30;59.90;;;;;;10452148;28;20072;-52
2022/05/04 02:30:55;;;;;;;3.05;1.88;;;15.30;59.90;;;;;;10451957;28;20076;-49
2022/05/04 02:41:14;;;;;;;5.37;1.80;;;15.30;59.90;;;;;;10452609;28;20033;-50
2022/05/04 02:46:19;;;;;;;1.60;1.05;;;15.30;59.90;;;;;;10467301;28;20061;-51
2022/05/04 02:51:19;;;;;;;1.60;1.30;;;15.20;59.90;;;;;;10466971;28;20036;-52
2022/05/04 02:56:20;;;;;;;2.30;1.40;;;15.20;59.90;;;;;;10451561;28;20036;-52
2022/05/04 03:06:42;;;;;;;3.37;1.73;;;15.30;59.90;;;;;;10455511;28;20037;-50
2022/05/04 03:11:54;;;;;;;3.05;1.50;;;15.30;59.90;;;;;;10474236;28;20036;-52
2022/05/04 03:16:56;;;;;;;1.60;1.50;;;15.20;59.80;;;;;;10458672;28;20378;-48
2022/05/04 03:21:56;;;;;;;2.50;1.40;;;15.20;59.80;;;;;;10458572;28;20033;-51
2022/05/04 03:26:58;;;;;;;2.13;1.40;;;15.20;59.80;;;;;;10458624;28;20112;-49
2022/05/04 03:31:58;;;;;;;2.83;1.48;;;15.20;59.80;;;;;;10457866;28;20091;-53
2022/05/04 03:36:59;;;;;;;3.25;2.03;;;15.20;59.80;;;;;;10457635;28;20183;-51
2022/05/04 03:42:00;;;;;;;2.20;1.13;;;15.20;59.80;;;;;;10457724;28;20477;-53
2022/05/04 03:47:01;;;;;;;3.72;1.55;;;15.20;59.80;;;;;;10457420;28;20032;-49
2022/05/04 03:52:01;;;;;;;2.72;1.88;;;15.20;59.80;;;;;;10457128;28;20049;-52
2022/05/04 03:57:03;;;;;;;2.63;1.77;;;15.20;59.70;;;;;;10454810;28;20084;-54
2022/05/04 04:02:04;;;;;;;2.15;1.63;;;15.20;59.80;;;;;;10452194;28;20058;-51
2022/05/04 04:07:05;;;;;;;2.08;1.58;;;15.20;59.70;;;;;;10453692;28;20105;-51
2022/05/04 04:12:07;;;;;;;3.72;1.55;;;15.20;59.70;;;;;;10457402;28;20053;-52
2022/05/04 04:17:07;;;;;;;2.25;1.50;;;15.20;59.70;;;;;;10456547;28;20116;-49
2022/05/04 04:22:08;;;;;;;2.70;1.27;;;15.20;59.70;;;;;;10457154;28;20025;-51
2022/05/04 04:27:09;;;;;;;1.85;1.38;;;15.20;59.70;;;;;;10457697;28;20060;-52
2022/05/04 04:32:09;;;;;;;1.33;0.82;;;15.10;59.60;;;;;;10456505;28;20081;-49
2022/05/04 04:37:11;;;;;;;2.30;1.35;;;15.10;59.70;;;;;;10456384;28;20036;-52
2022/05/04 04:42:14;;;;;;;1.30;1.13;;;15.10;59.70;;;;;;10456709;28;20036;-52
2022/05/04 04:47:15;;;;;;;1.35;1.00;;;15.10;59.60;;;;;;10456399;28;20412;-51
2022/05/04 04:52:16;;;;;;;1.98;1.23;;;15.10;59.60;;;;;;10471632;28;20029;-52
2022/05/04 04:57:16;;;;;;;2.40;1.60;;;15.10;59.60;;;;;;10455793;28;20133;-51
2022/05/04 05:02:17;;;;;;;1.80;1.55;;;15.10;59.70;;;;;;10454613;28;20084;-53
2022/05/04 05:07:18;;;;;;;2.05;1.42;;;15.10;59.60;;;;;;10470739;28;20492;-50
2022/05/04 05:12:19;;;;;;;2.33;1.38;;;15.10;60.30;;;;;;10455160;28;20442;-53
2022/05/04 05:17:20;;;;;;;1.58;1.02;;;15.10;59.60;;;;;;10455535;28;20046;-51
2022/05/04 05:22:20;;;;;;;3.75;2.35;;;15.10;59.60;;;;;;10454832;28;20354;-52
2022/05/04 05:27:24;;;;;;;2.95;1.35;;;15.10;59.60;;;;;;10454443;28;20064;-53
2022/05/04 05:32:25;;;;;;;2.15;1.50;;;15.10;59.60;;;;;;10454563;28;20073;-52
2022/05/04 05:37:25;;;;;;;2.15;1.38;;;15.10;60.20;;;;;;10454754;28;20051;-51
2022/05/04 05:42:28;;;;;;;2.90;1.92;;;15.10;59.60;;;;;;10454387;28;20029;-51
2022/05/04 05:47:29;;;;;;;2.50;1.58;;;15.10;59.70;;;;;;10454364;28;20025;-52
2022/05/04 05:52:30;;;;;;;2.17;1.60;;;15.10;59.60;;;;;;10454040;28;20025;-51
2022/05/04 05:57:32;;;;;;;3.55;1.70;;;15.10;59.60;;;;;;10469875;28;20058;-52
2022/05/04 06:02:33;;;;;;;3.17;2.35;;;15.10;59.60;;;;;;10453980;28;20501;-51
2022/05/04 06:07:34;;;;;;;2.20;1.75;;;15.10;59.60;;;;;;10453608;28;20039;-53
2022/05/04 06:12:34;;;;;;;3.47;2.00;;;15.10;59.60;;;;;;10469193;28;20118;-52
2022/05/04 06:17:36;;;;;;;2.33;1.73;;;15.00;60.20;;;;;;10468979;28;20052;-54
2022/05/04 06:22:37;;;;;;;2.33;1.90;;;15.10;59.60;;;;;;10453469;28;20116;-52
2022/05/04 06:27:38;;;;;;;3.53;1.92;;;15.00;59.60;;;;;;10453558;28;20017;-53
2022/05/04 06:37:58;;;;;;;2.40;2.05;;;15.00;59.60;;;;;;10454254;28;20052;-52
2022/05/04 06:42:59;;;;;;;1.60;1.42;;;15.00;60.20;;;;;;10458745;28;20439;-53
2022/05/04 06:48:02;;;;;;;2.63;1.73;;;15.10;59.70;;;;;;10461277;28;20033;-54
2022/05/04 06:53:03;;;;;;;2.90;2.38;;;15.00;59.60;;;;;;10461068;28;20029;-53
2022/05/04 06:58:04;;;;;;;3.35;1.98;;;15.00;59.60;;;;;;10460517;28;20033;-51
2022/05/04 07:03:05;;;;;;;3.03;1.80;;;15.00;59.60;;;;;;10460451;28;20025;-51
2022/05/04 07:08:06;;;;;;;2.28;1.55;;;15.00;59.70;;;;;;10460457;28;20036;-51
2022/05/04 07:13:07;;;;;;;3.45;2.58;;;15.00;59.70;;;;;;10475020;28;20029;-54
2022/05/04 07:18:08;;;;;;;3.47;1.63;;;15.00;59.70;;;;;;10459848;28;20477;-53
2022/05/04 07:23:09;;;;;;;3.50;1.90;;;15.00;59.90;;;;;;10459559;28;20033;-52
2022/05/04 07:28:09;;;;;;;4.95;2.05;;;15.00;60.00;;;;;;10459409;28;20037;-51
2022/05/04 07:33:10;;;;;;;4.18;2.28;;;15.10;60.10;;;;;;10459138;28;20132;-52
2022/05/04 07:38:11;;;;;;;2.05;1.40;;;15.10;60.10;;;;;;10457641;28;20116;-50
2022/05/04 07:43:11;;;;;;;3.30;1.75;;;15.20;60.00;;;;;;10457475;28;20053;-51
2022/05/04 07:48:12;;;;;;;2.88;1.88;;;15.20;60.00;;;;;;10474359;28;20367;-53
2022/05/04 07:53:13;;;;;;;1.80;1.50;;;15.20;60.00;;;;;;10472727;28;20115;-50
2022/05/04 07:58:14;;;;;;;4.88;1.85;;;15.30;60.00;;;;;;10458205;28;20440;-51
2022/05/04 08:08:33;;;;;;;3.20;1.75;;;15.30;59.90;;;;;;10458023;28;20470;-51
2022/05/04 08:13:34;;;;;;;3.28;1.70;;;15.30;60.00;;;;;;10457650;28;20033;-52
2022/05/04 08:18:35;;;;;;;3.70;1.67;;;15.30;59.90;;;;;;10457461;28;20045;-53
2022/05/04 08:23:36;;;;;;;3.33;1.80;;;15.40;59.90;;;;;;10472713;28;20120;-53
2022/05/04 08:28:36;;;;;;;4.18;1.80;;;15.40;59.90;;;;;;10457719;28;20040;-52
2022/05/04 08:33:37;;;;;;;3.15;1.80;;;15.40;60.00;;;;;;10456510;28;20065;-53
2022/05/04 08:38:38;;;;;;;2.33;1.80;;;15.40;59.90;;;;;;10456730;28;20022;-54
2022/05/04 08:43:42;;;;;;;2.47;1.80;;;15.40;59.80;;;;;;10456553;28;20116;-54
2022/05/04 08:48:44;;;;;;;3.67;2.72;;;15.40;59.80;;;;;;10456184;28;20082;-53
2022/05/04 08:53:45;;;;;;;3.92;2.08;;;15.50;59.90;;;;;;10456170;28;20513;-52
2022/05/04 08:58:46;;;;;;;2.75;1.70;;;15.50;59.90;;;;;;10455848;28;20025;-54
2022/05/04 09:03:47;;;;;;;3.10;2.10;;;15.50;59.90;;;;;;10454262;28;20037;-49
2022/05/04 09:09:03;;;;;;;2.85;1.90;;;15.50;59.90;;;;;;10455500;28;20052;-51
2022/05/04 09:14:15;;;;;;;3.10;1.83;;;15.50;59.90;;;;;;10455582;28;20472;-50
2022/05/04 09:19:19;;;;;;;4.25;1.95;;;15.60;59.90;;;;;;10455206;28;20025;-50
2022/05/04 09:24:29;;;;;;;2.67;1.60;;;15.60;60.00;;;;;;10470197;28;20374;-53
2022/05/04 09:29:35;;;;;;;3.45;1.65;;;15.60;60.10;;;;;;10454737;28;20036;-53
2022/05/04 09:34:36;;;;;;;2.13;1.80;;;15.60;60.10;;;;;;10469683;28;20060;-51
2022/05/04 09:45:13;;;;;;;4.10;1.70;;;15.60;60.10;;;;;;10454857;28;20420;-51
2022/05/04 09:50:16;;;;;;;2.40;1.65;;;15.60;60.10;;;;;;10469370;28;20025;-51
2022/05/04 09:55:24;;;;;;;2.88;1.92;;;15.60;60.10;;;;;;10453800;28;20039;-51
2022/05/04 10:00:26;;;;;;;4.05;2.00;;;15.60;60.00;;;;;;10469117;28;20028;-51
2022/05/04 10:05:28;;;;;;;2.55;1.77;;;15.60;60.10;;;;;;10453869;28;20055;-49
2022/05/04 10:10:30;;;;;;;6.75;2.47;;;15.70;60.20;;;;;;10453434;28;20481;-49
2022/05/04 10:15:32;;;;;;;4.35;1.88;;;15.70;60.10;;;;;;10455287;28;20037;-51
2022/05/04 10:20:44;;;;;;;2.00;1.50;;;15.70;60.00;;;;;;10462290;28;20035;-51
2022/05/04 10:25:45;;;;;;;3.10;1.85;;;15.80;60.10;;;;;;10476838;28;20028;-52
2022/05/04 10:30:57;;;;;;;2.83;1.80;;;15.80;60.00;;;;;;10461647;28;20029;-48
2022/05/04 10:36:26;;;;;;;2.85;1.83;;;15.80;60.00;;;;;;10461614;28;20067;-49
2022/05/04 10:41:37;;;;;;;4.40;2.60;;;15.80;59.90;;;;;;10460080;28;20516;-53
2022/05/04 10:46:40;;;;;;;2.83;1.90;;;15.90;59.90;;;;;;10460789;28;20040;-53
2022/05/04 10:51:45;;;;;;;3.15;1.90;;;15.90;59.80;;;;;;10476092;28;20522;-51
2022/05/04 10:56:52;;;;;;;4.53;2.20;;;15.90;59.70;;;;;;10475793;28;20489;-53
2022/05/04 11:02:04;;;;;;;3.63;2.00;;;15.90;59.70;;;;;;10475573;28;20025;-52
2022/05/04 11:07:08;;;;;;;3.70;1.90;;;16.00;59.60;;;;;;10460187;28;20063;-50
2022/05/04 11:12:11;;;;;;;2.85;2.05;;;16.00;59.60;;;;;;10475422;28;20033;-50
2022/05/04 11:17:16;;;;;;;2.80;2.00;;;16.00;59.60;;;;;;10459950;28;20029;-48
2022/05/04 11:22:18;;;;;;;3.20;1.95;;;16.00;59.50;;;;;;10459699;28;20025;-50
2022/05/04 11:27:19;;;;;;;3.50;2.10;;;16.00;59.40;;;;;;10459801;28;20033;-49
2022/05/04 11:32:20;;;;;;;3.83;2.17;;;16.10;59.60;;;;;;10459618;28;20048;-50
2022/05/04 11:37:23;;;;;;;3.90;1.77;;;16.10;59.60;;;;;;10459075;28;20104;-50
2022/05/04 11:42:24;;;;;;;3.72;1.88;;;16.20;59.60;;;;;;10458698;28;20108;-52
2022/05/04 11:47:25;;;;;;;3.33;2.03;;;16.20;59.50;;;;;;10458907;28;20104;-50
2022/05/04 11:52:26;;;;;;;3.25;2.22;;;16.20;59.40;;;;;;10458765;28;20032;-53
2022/05/04 11:57:26;;;;;;;3.15;2.55;;;16.20;59.50;;;;;;10473488;28;20087;-50
2022/05/04 12:02:27;;;;;;;3.85;1.65;;;16.30;59.40;;;;;;10458555;28;20035;-53
2022/05/04 12:07:28;;;;;;;4.60;2.28;;;16.30;59.50;;;;;;10473227;28;20031;-50
2022/05/04 12:12:30;;;;;;;3.65;2.38;;;16.30;59.40;;;;;;10472905;28;20052;-52
2022/05/04 12:17:35;;;;;;;3.75;2.67;;;16.30;59.40;;;;;;10457056;28;20070;-50
2022/05/04 12:22:36;;;;;;;3.15;1.98;;;16.30;59.50;;;;;;10472434;28;20512;-50
2022/05/04 12:27:38;;;;;;;3.67;1.95;;;16.40;59.50;;;;;;10457158;28;20032;-52
2022/05/04 12:38:03;;;;;;;4.97;2.28;;;16.40;59.40;;;;;;10455106;28;20112;-51
2022/05/04 12:43:06;;;;;;;3.95;1.98;;;16.50;59.40;;;;;;10456072;28;20025;-51
2022/05/04 12:48:10;;;;;;;3.33;2.00;;;16.50;59.40;;;;;;10456278;28;20363;-53
2022/05/04 12:53:10;;;;;;;3.03;2.05;;;16.50;59.40;;;;;;10471815;28;20033;-52
2022/05/04 12:58:13;;;;;;;4.50;2.50;;;16.50;59.40;;;;;;10455835;28;20047;-52
2022/05/04 13:03:13;;;;;;;4.75;2.08;;;16.60;59.40;;;;;;10456308;28;20037;-51
2022/05/04 13:08:14;;;;;;;2.75;2.08;;;16.60;59.30;;;;;;10455830;28;20060;-50
2022/05/04 13:13:18;;;;;;;5.38;1.90;;;16.60;59.30;;;;;;10454972;28;20029;-53
2022/05/04 13:18:20;;;;;;;3.13;1.70;;;16.70;59.30;;;;;;10455424;28;20447;-50
2022/05/04 13:23:21;;;;;;;2.80;2.20;;;16.70;59.30;;;;;;10454976;28;20033;-53
2022/05/04 13:28:22;;;;;;;2.97;2.00;;;16.70;59.20;;;;;;10454837;28;20032;-53
2022/05/04 13:33:23;;;;;;;4.60;1.88;;;16.70;59.20;;;;;;10454539;28;20044;-55
2022/05/04 13:38:24;;;;;;;4.15;2.45;;;16.70;59.20;;;;;;10470116;28;20103;-53
2022/05/04 13:43:25;;;;;;;5.38;2.45;;;16.70;59.10;;;;;;10470057;28;20056;-53
2022/05/04 13:48:25;;;;;;;4.80;2.28;;;16.70;59.00;;;;;;10454107;28;20029;-53
2022/05/04 13:53:26;;;;;;;3.20;2.22;;;16.70;59.10;;;;;;10453164;28;20029;-52
2022/05/04 13:58:27;;;;;;;5.35;2.25;;;16.60;59.30;;;;;;10454206;28;20031;-52
2022/05/04 14:03:28;;;;;;;3.45;2.45;;;16.60;59.40;;;;;;10453874;28;20052;-54
2022/05/04 14:08:28;;;;;;;3.13;2.15;;;16.70;59.40;;;;;;10469115;28;20029;-54
2022/05/04 14:13:29;;;;;;;5.75;2.67;;;16.70;59.30;;;;;;10453571;28;20029;-55
2022/05/04 14:18:31;;;;;;;3.22;2.20;;;16.70;59.40;;;;;;10452375;28;20045;-53
2022/05/04 14:23:32;;;;;;;3.55;2.30;;;16.70;59.50;;;;;;10453308;28;20132;-54
2022/05/04 14:28:33;;;;;;;4.65;2.33;;;16.70;59.60;;;;;;10469156;28;20102;-55
2022/05/04 14:33:33;;;;;;;3.30;2.00;;;16.70;59.50;;;;;;10468814;28;20074;-54
2022/05/04 14:38:34;;;;;;;3.72;2.30;;;16.70;59.60;;;;;;10468542;28;20045;-54
2022/05/04 14:43:36;;;;;;;2.50;2.17;;;16.60;59.50;;;;;;10452892;28;20163;-54
2022/05/04 14:48:36;;;;;;;3.75;2.15;;;16.70;59.60;;;;;;10453226;28;20090;-52
2022/05/04 14:53:37;;;;;;;6.75;3.20;;;16.70;59.70;;;;;;10452796;28;20033;-54
2022/05/04 14:58:38;;;;;;;3.47;2.05;;;16.70;59.70;;;;;;10453019;28;20021;-53
2022/05/04 15:08:59;;;;;;;3.92;2.42;;;16.60;59.70;;;;;;10460852;28;20041;-52
2022/05/04 15:13:59;;;;;;;3.53;2.10;;;16.60;59.80;;;;;;10460106;28;20481;-53
2022/05/04 15:19:00;;;;;;;6.00;2.70;;;16.60;59.80;;;;;;10459762;28;20033;-53
2022/05/04 15:24:01;;;;;;;3.15;1.80;;;16.60;59.80;;;;;;10459783;28;20551;-54
2022/05/04 15:29:02;;;;;;;3.25;2.35;;;16.60;59.90;;;;;;10459293;28;20065;-54
2022/05/04 15:34:02;;;;;;;3.13;2.40;;;16.60;60.00;;;;;;10459254;28;20048;-54
2022/05/04 15:39:03;;;;;;;3.67;2.15;;;16.60;60.00;;;;;;10459082;28;20024;-52
2022/05/04 15:44:05;;;;;;;5.80;3.30;;;16.60;60.00;;;;;;10458750;28;20037;-54
2022/05/04 15:49:07;;;;;;;4.32;2.28;;;16.60;60.00;;;;;;10474105;28;20039;-52
2022/05/04 15:54:08;;;;;;;3.60;2.25;;;16.60;60.00;;;;;;10473861;28;20370;-49
2022/05/04 15:59:09;;;;;;;3.33;2.17;;;16.60;60.00;;;;;;10458363;28;20029;-52
2022/05/04 16:04:12;;;;;;;3.55;1.77;;;16.60;60.00;;;;;;10456674;28;20385;-52
2022/05/04 16:09:13;;;;;;;3.63;2.15;;;16.60;59.90;;;;;;10457981;28;20033;-54
2022/05/04 16:14:14;;;;;;;4.00;2.50;;;16.60;60.00;;;;;;10455577;28;20028;-52
2022/05/04 16:24:34;;;;;;;4.30;2.33;;;16.50;59.90;;;;;;10457436;28;20037;-54
2022/05/04 16:29:34;;;;;;;6.18;2.45;;;16.50;60.00;;;;;;10457098;28;20724;-53
2022/05/04 16:34:35;;;;;;;3.58;2.35;;;16.50;60.10;;;;;;10472200;28;20041;-53
2022/05/04 16:39:36;;;;;;;3.17;2.22;;;16.50;60.10;;;;;;10472504;28;20644;-50
2022/05/04 16:44:36;;;;;;;3.63;2.00;;;16.50;60.10;;;;;;10456602;28;20033;-52
2022/05/04 16:49:37;;;;;;;5.88;2.30;;;16.40;60.00;;;;;;10456151;28;20060;-51
2022/05/04 16:54:38;;;;;;;4.43;2.78;;;16.40;60.20;;;;;;10455144;28;20020;-53
2022/05/04 16:59:39;;;;;;;3.28;2.30;;;16.40;60.10;;;;;;10455914;28;20452;-53
2022/05/04 17:04:39;;;;;;;3.45;2.25;;;16.40;60.20;;;;;;10455736;28;20504;-53
2022/05/04 17:09:40;;;;;;;3.50;2.15;;;16.40;60.10;;;;;;10455705;28;20035;-54
2022/05/04 17:14:41;;;;;;;3.90;2.22;;;16.40;60.10;;;;;;10455376;28;20029;-52
2022/05/04 17:19:42;;;;;;;3.55;2.22;;;16.40;60.10;;;;;;10454998;28;20033;-52
2022/05/04 17:24:42;;;;;;;3.90;2.53;;;16.40;60.10;;;;;;10454948;28;20024;-51
2022/05/04 17:29:43;;;;;;;3.58;2.17;;;16.40;60.10;;;;;;10454783;28;20120;-49
2022/05/04 17:40:04;;;;;;;3.67;2.58;;;16.40;60.10;;;;;;10454686;28;20111;-49
2022/05/04 17:45:05;;;;;;;3.63;2.25;;;16.40;60.20;;;;;;10454201;28;20591;-53
2022/05/04 17:50:08;;;;;;;3.65;2.13;;;16.40;60.20;;;;;;10469667;28;20028;-52
2022/05/04 17:55:09;;;;;;;3.45;2.47;;;16.40;60.30;;;;;;10454074;28;20065;-53
2022/05/04 18:00:11;;;;;;;4.95;2.10;;;16.30;60.20;;;;;;10454459;28;20033;-53
2022/05/04 18:05:11;;;;;;;4.22;2.10;;;16.40;60.30;;;;;;10453784;28;20473;-50
2022/05/04 18:10:12;;;;;;;4.45;2.55;;;16.30;60.30;;;;;;10453809;28;20112;-53
2022/05/04 18:15:13;;;;;;;3.50;2.53;;;16.30;60.30;;;;;;10453725;28;20052;-52
2022/05/04 18:20:13;;;;;;;4.80;2.50;;;16.30;60.30;;;;;;10453616;28;20057;-52
2022/05/04 18:25:14;;;;;;;2.20;1.80;;;16.30;60.40;;;;;;10453668;28;20553;-49
2022/05/04 18:30:15;;;;;;;3.13;2.22;;;16.30;60.20;;;;;;10453412;28;20100;-51
2022/05/04 18:35:19;;;;;;;3.42;2.13;;;16.30;60.90;;;;;;10453416;28;20044;-48
2022/05/04 18:40:19;;;;;;;3.90;2.35;;;16.30;60.20;;;;;;10476401;28;20025;-50
2022/05/04 18:45:21;;;;;;;5.45;2.30;;;16.30;60.20;;;;;;10461451;28;20477;-51
2022/05/04 18:50:22;;;;;;;3.30;2.35;;;16.30;60.10;;;;;;10476544;28;20040;-50
2022/05/04 18:55:23;;;;;;;6.07;2.40;;;16.30;60.10;;;;;;10460685;28;20032;-50
2022/05/04 19:00:24;;;;;;;3.10;2.22;;;16.30;60.10;;;;;;10460806;28;20029;-51
2022/05/04 19:05:24;;;;;;;4.35;2.17;;;16.30;60.10;;;;;;10459311;28;20401;-51
2022/05/04 19:10:25;;;;;;;3.90;2.83;;;16.30;60.10;;;;;;10460305;28;20029;-52
2022/05/04 19:15:26;;;;;;;4.00;2.38;;;16.30;60.10;;;;;;10460105;28;20032;-53
2022/05/04 19:20:27;;;;;;;3.25;2.63;;;16.30;60.00;;;;;;10460117;28;20091;-55
2022/05/04 19:25:28;;;;;;;3.58;2.33;;;16.30;60.00;;;;;;10475309;28;20063;-53
2022/05/04 19:30:29;;;;;;;3.35;2.35;;;16.30;59.90;;;;;;10459479;28;20063;-51
2022/05/04 19:35:30;;;;;;;3.25;2.42;;;16.30;60.00;;;;;;10474702;28;20049;-49
2022/05/04 19:40:30;;;;;;;5.20;2.47;;;16.30;60.00;;;;;;10459382;28;20036;-51
2022/05/04 19:45:31;;;;;;;5.10;2.33;;;16.30;60.00;;;;;;10459027;28;20524;-53
2022/05/04 19:50:32;;;;;;;2.90;1.73;;;16.30;60.10;;;;;;10457789;28;20436;-49
2022/05/04 19:55:34;;;;;;;4.03;2.10;;;16.30;60.10;;;;;;10456343;28;20568;-51
2022/05/04 20:00:34;;;;;;;2.90;2.00;;;16.30;60.10;;;;;;10456031;28;20063;-49
2022/05/04 20:05:35;;;;;;;2.65;1.80;;;16.30;60.00;;;;;;10457162;28;20076;-52
2022/05/04 20:10:36;;;;;;;3.83;2.30;;;16.30;59.90;;;;;;10457266;28;20039;-50
2022/05/04 20:15:36;;;;;;;3.42;2.42;;;16.30;60.00;;;;;;10457237;28;20471;-51
2022/05/04 20:20:38;;;;;;;4.75;1.90;;;16.30;59.90;;;;;;10456794;28;20048;-50
2022/05/04 20:25:40;;;;;;;3.25;2.20;;;16.30;59.80;;;;;;10456329;28;20477;-51
2022/05/04 20:30:41;;;;;;;3.10;2.03;;;16.30;59.90;;;;;;10471271;28;20033;-52
2022/05/04 20:35:42;;;;;;;3.50;2.20;;;16.30;59.80;;;;;;10454225;28;20037;-49
2022/05/04 20:40:42;;;;;;;3.55;2.42;;;16.30;59.70;;;;;;10454606;28;20067;-53
2022/05/04 20:45:43;;;;;;;4.97;2.03;;;16.30;59.70;;;;;;10455556;28;20036;-50
2022/05/04 20:56:04;;;;;;;4.83;2.37;;;16.30;59.50;;;;;;10468045;28;20120;-50
2022/05/04 21:01:05;;;;;;;3.47;2.40;;;16.30;59.50;;;;;;10454545;28;20451;-51
2022/05/04 21:06:06;;;;;;;4.70;2.67;;;16.30;59.50;;;;;;10454840;28;20039;-50
2022/05/04 21:11:06;;;;;;;3.65;2.33;;;16.30;59.50;;;;;;10454513;28;20029;-51
2022/05/04 21:16:07;;;;;;;4.60;2.30;;;16.30;59.60;;;;;;10454126;28;20037;-51
2022/05/04 21:21:08;;;;;;;4.60;2.20;;;16.30;59.50;;;;;;10454179;28;20578;-49
2022/05/04 21:26:09;;;;;;;4.35;2.38;;;16.30;59.50;;;;;;10454031;28;20033;-50
2022/05/04 21:31:10;;;;;;;4.65;2.22;;;16.30;59.40;;;;;;10453811;28;20029;-52
2022/05/04 21:36:10;;;;;;;4.38;2.65;;;16.30;59.50;;;;;;10453413;28;20047;-51
2022/05/04 21:41:12;;;;;;;4.88;2.42;;;16.30;59.50;;;;;;10452029;28;20057;-50
2022/05/04 21:46:13;;;;;;;3.60;2.13;;;16.20;59.40;;;;;;10453278;28;20396;-51
2022/05/04 21:51:14;;;;;;;3.78;2.50;;;16.30;59.50;;;;;;10453129;28;20064;-53
2022/05/04 21:56:15;;;;;;;3.72;2.28;;;16.30;59.50;;;;;;10453157;28;20017;-51
2022/05/04 22:01:16;;;;;;;5.82;2.50;;;16.30;60.10;;;;;;10452894;28;20033;-50
2022/05/04 22:06:17;;;;;;;4.03;2.70;;;16.20;59.40;;;;;;10468118;28;20033;-50
2022/05/04 22:16:36;;;;;;;3.40;2.47;;;16.20;59.30;;;;;;10452658;28;20037;-50
2022/05/04 22:21:37;;;;;;;4.43;2.30;;;16.20;59.40;;;;;;10452816;28;20100;-50
2022/05/04 22:26:38;;;;;;;3.17;2.05;;;16.20;59.40;;;;;;10452525;28;20063;-48
2022/05/04 22:31:38;;;;;;;3.50;2.38;;;16.20;59.40;;;;;;10452115;28;20107;-52
2022/05/04 22:36:39;;;;;;;3.75;2.42;;;16.20;59.40;;;;;;10452081;28;20116;-50
2022/05/04 22:41:40;;;;;;;3.83;2.30;;;16.20;59.30;;;;;;10451911;28;20100;-51
2022/05/04 22:46:43;;;;;;;3.90;2.25;;;16.20;59.30;;;;;;10452087;28;20044;-52
2022/05/04 22:51:44;;;;;;;4.45;2.63;;;16.20;59.30;;;;;;10451977;28;20051;-50
2022/05/04 22:56:45;;;;;;;6.22;2.58;;;16.20;59.30;;;;;;10451666;28;20087;-51
2022/05/04 23:01:45;;;;;;;3.35;2.58;;;16.20;59.30;;;;;;10451870;28;20097;-52
2022/05/04 23:06:46;;;;;;;4.18;2.50;;;16.20;59.30;;;;;;10451629;28;20068;-50
2022/05/04 23:11:47;;;;;;;3.95;2.65;;;16.20;59.30;;;;;;10451941;28;20202;-49
2022/05/04 23:16:48;;;;;;;4.55;2.70;;;16.20;59.30;;;;;;10451387;28;20178;-50
2022/05/04 23:21:48;;;;;;;5.10;2.63;;;16.20;59.20;;;;;;10451720;28;20427;-50
2022/05/04 23:26:49;;;;;;;3.85;2.83;;;16.20;59.20;;;;;;10474290;28;20056;-49
2022/05/04 23:31:50;;;;;;;4.05;2.50;;;16.20;59.20;;;;;;10458301;28;20080;-49
2022/05/04 23:42:12;;;;;;;4.65;2.63;;;16.10;59.10;;;;;;10458598;28;20115;-50
2022/05/04 23:47:12;;;;;;;4.45;2.38;;;16.10;59.10;;;;;;10457937;28;20120;-52
2022/05/04 23:52:13;;;;;;;3.63;2.70;;;16.10;59.20;;;;;;10473071;28;20033;-51
2022/05/04 23:57:14;;;;;;;5.25;3.40;;;16.10;59.10;;;;;;10457321;28;20631;-50
